createdAt,value
2023-05-24T00:00:32.785Z,101370.75
2023-05-24T00:03:00.793Z,101364.78
2023-05-24T00:05:31.037Z,101368.25
2023-05-24T00:08:00.519Z,101363.88
2023-05-24T00:10:28.291Z,101359.03
2023-05-24T00:12:56.213Z,101358.84
2023-05-24T00:15:24.305Z,101358.75
2023-05-24T00:17:52.328Z,101349.47
2023-05-24T00:20:20.752Z,101361.84
2023-05-24T00:22:48.967Z,101353.44
2023-05-24T00:25:18.602Z,101357.88
2023-05-24T00:27:46.571Z,101353.00
2023-05-24T00:30:14.664Z,101346.94
2023-05-24T00:32:42.702Z,101344.44
2023-05-24T00:35:11.451Z,101346.28
2023-05-24T00:37:44.941Z,101335.88
2023-05-24T00:40:13.533Z,101340.66
2023-05-24T00:42:42.733Z,101340.09
2023-05-24T00:45:11.356Z,101340.47
2023-05-24T00:47:39.967Z,101335.59
2023-05-24T00:50:13.148Z,101338.84
2023-05-24T00:52:43.030Z,101338.66
2023-05-24T00:55:13.535Z,101330.88
2023-05-24T00:57:43.000Z,101330.13
2023-05-24T01:00:13.448Z,101335.16
2023-05-24T01:02:41.812Z,101336.91
2023-05-24T01:05:13.521Z,101331.59
2023-05-24T01:07:54.584Z,101335.81
2023-05-24T01:10:34.861Z,101335.22
2023-05-24T01:13:15.649Z,101333.34
2023-05-24T01:15:56.592Z,101333.72
2023-05-24T01:18:33.150Z,101333.50
2023-05-24T01:21:24.885Z,101326.56
2023-05-24T01:24:14.287Z,101324.91
2023-05-24T01:26:56.120Z,101330.66
2023-05-24T01:29:26.393Z,101326.63
2023-05-24T01:31:54.450Z,101316.66
2023-05-24T01:34:22.352Z,101314.25
2023-05-24T01:36:50.514Z,101312.81
2023-05-24T01:39:19.549Z,101320.38
2023-05-24T01:42:05.190Z,101320.63
2023-05-24T01:44:40.115Z,101315.72
2023-05-24T01:47:27.398Z,101307.81
2023-05-24T01:50:07.180Z,101318.22
2023-05-24T01:52:36.276Z,101314.91
2023-05-24T01:55:08.257Z,101310.22
2023-05-24T01:57:41.418Z,101308.91
2023-05-24T02:00:14.171Z,101309.44
2023-05-24T02:02:42.409Z,101303.94
2023-05-24T02:05:11.878Z,101313.28
2023-05-24T02:07:41.291Z,101315.63
2023-05-24T02:10:10.245Z,101309.59
2023-05-24T02:12:39.622Z,101319.22
2023-05-24T02:15:10.598Z,101321.50
2023-05-24T02:17:38.631Z,101316.06
2023-05-24T02:20:08.490Z,101320.78
2023-05-24T02:22:36.601Z,101311.34
2023-05-24T02:25:06.132Z,101319.59
2023-05-24T02:27:34.167Z,101322.19
2023-05-24T02:30:04.076Z,101314.25
2023-05-24T02:32:32.916Z,101319.09
2023-05-24T02:35:01.919Z,101315.06
2023-05-24T02:37:29.802Z,101323.59
2023-05-24T02:39:57.683Z,101318.22
2023-05-24T02:42:25.739Z,101320.88
2023-05-24T02:44:53.617Z,101318.34
2023-05-24T02:47:22.951Z,101324.56
2023-05-24T02:49:51.572Z,101321.66
2023-05-24T02:52:22.830Z,101322.78
2023-05-24T02:54:51.141Z,101315.19
2023-05-24T02:57:20.686Z,101314.44
2023-05-24T02:59:48.919Z,101313.03
2023-05-24T03:02:19.543Z,101314.06
2023-05-24T03:04:48.951Z,101316.06
2023-05-24T03:07:17.212Z,101308.78
2023-05-24T03:09:45.272Z,101311.19
2023-05-24T03:12:13.974Z,101323.50
2023-05-24T03:14:41.862Z,101311.88
2023-05-24T03:17:09.810Z,101312.31
2023-05-24T03:19:37.748Z,101315.06
2023-05-24T03:22:07.061Z,101313.94
2023-05-24T03:24:38.355Z,101323.94
2023-05-24T03:27:06.600Z,101321.06
2023-05-24T03:29:34.587Z,101315.06
2023-05-24T03:32:02.822Z,101309.72
2023-05-24T03:34:31.412Z,101306.34
2023-05-24T03:36:59.386Z,101303.75
2023-05-24T03:39:28.701Z,101298.38
2023-05-24T03:42:08.785Z,101313.22
2023-05-24T03:44:38.895Z,101302.53
2023-05-24T03:47:07.764Z,101305.19
2023-05-24T03:49:35.805Z,101300.47
2023-05-24T03:52:03.945Z,101301.06
2023-05-24T03:54:33.176Z,101302.53
2023-05-24T03:57:01.638Z,101300.63
2023-05-24T03:59:30.915Z,101305.34
2023-05-24T04:01:58.827Z,101302.84
2023-05-24T04:04:26.852Z,101297.81
2023-05-24T04:06:56.213Z,101303.56
2023-05-24T04:09:24.651Z,101306.97
2023-05-24T04:11:53.934Z,101307.41
2023-05-24T04:14:21.910Z,101311.69
2023-05-24T04:16:49.739Z,101306.59
2023-05-24T04:19:20.141Z,101305.91
2023-05-24T04:21:48.268Z,101311.38
2023-05-24T04:24:16.382Z,101308.88
2023-05-24T04:26:45.587Z,101306.50
2023-05-24T04:29:14.969Z,101296.50
2023-05-24T04:31:44.848Z,101292.88
2023-05-24T04:34:14.360Z,101296.38
2023-05-24T04:36:42.980Z,101291.69
2023-05-24T04:39:12.996Z,101305.13
2023-05-24T04:41:40.975Z,101297.97
2023-05-24T04:44:09.899Z,101294.97
2023-05-24T04:46:39.235Z,101297.56
2023-05-24T04:49:08.432Z,101290.03
2023-05-24T04:51:38.517Z,101299.09
2023-05-24T04:54:08.979Z,101293.41
2023-05-24T04:56:38.780Z,101290.97
2023-05-24T04:59:08.223Z,101296.28
2023-05-24T05:01:36.562Z,101304.38
2023-05-24T05:04:06.238Z,101310.66
2023-05-24T05:06:38.341Z,101313.72
2023-05-24T05:09:09.341Z,101317.84
2023-05-24T05:11:37.574Z,101330.75
2023-05-24T05:14:06.235Z,101324.09
2023-05-24T05:16:34.160Z,101333.06
2023-05-24T05:19:04.488Z,101321.13
2023-05-24T05:21:34.958Z,101318.69
2023-05-24T05:24:04.065Z,101329.59
2023-05-24T05:26:31.989Z,101328.44
2023-05-24T05:28:59.946Z,101325.75
2023-05-24T05:31:27.737Z,101323.66
2023-05-24T05:33:55.600Z,101325.50
2023-05-24T05:36:23.537Z,101316.34
2023-05-24T05:38:52.903Z,101311.72
2023-05-24T05:41:20.973Z,101320.91
2023-05-24T05:43:49.027Z,101316.72
2023-05-24T05:46:16.934Z,101320.16
2023-05-24T05:48:46.462Z,101330.28
2023-05-24T05:51:14.559Z,101325.09
2023-05-24T05:53:42.449Z,101319.28
2023-05-24T05:56:11.657Z,101312.84
2023-05-24T05:58:39.782Z,101317.59
2023-05-24T06:01:07.798Z,101316.16
2023-05-24T06:03:36.046Z,101312.88
2023-05-24T06:06:04.408Z,101314.16
2023-05-24T06:08:34.961Z,101310.94
2023-05-24T06:11:03.298Z,101315.03
2023-05-24T06:13:33.044Z,101314.00
2023-05-24T06:16:01.216Z,101313.91
2023-05-24T06:18:30.620Z,101307.78
2023-05-24T06:20:58.576Z,101314.06
2023-05-24T06:23:26.485Z,101318.91
2023-05-24T06:25:54.698Z,101311.16
2023-05-24T06:28:22.742Z,101313.06
2023-05-24T06:30:52.012Z,101314.78
2023-05-24T06:33:19.984Z,101314.47
2023-05-24T06:35:48.030Z,101318.69
2023-05-24T06:38:16.129Z,101316.47
2023-05-24T06:40:44.474Z,101312.75
2023-05-24T06:43:12.537Z,101312.44
2023-05-24T06:45:42.240Z,101323.91
2023-05-24T06:48:12.471Z,101308.66
2023-05-24T06:50:42.601Z,101307.94
2023-05-24T06:53:10.853Z,101319.72
2023-05-24T06:55:38.799Z,101317.63
2023-05-24T06:58:07.041Z,101327.97
2023-05-24T07:00:34.775Z,101321.25
2023-05-24T07:03:02.785Z,101335.13
2023-05-24T07:05:32.234Z,101338.47
2023-05-24T07:08:00.159Z,101340.44
2023-05-24T07:10:28.042Z,101340.06
2023-05-24T07:12:56.132Z,101334.75
2023-05-24T07:15:23.955Z,101338.47
2023-05-24T07:17:51.861Z,101336.34
2023-05-24T07:20:19.813Z,101326.38
2023-05-24T07:22:49.133Z,101343.84
2023-05-24T07:25:17.476Z,101332.22
2023-05-24T07:27:45.669Z,101338.13
2023-05-24T07:30:27.916Z,101336.28
2023-05-24T07:32:59.267Z,101343.09
2023-05-24T07:35:29.233Z,101342.06
2023-05-24T07:37:58.594Z,101351.06
2023-05-24T07:40:26.652Z,101344.75
2023-05-24T07:42:54.500Z,101342.88
2023-05-24T07:45:22.890Z,101338.13
2023-05-24T07:47:50.843Z,101335.41
2023-05-24T07:50:19.286Z,101332.19
2023-05-24T07:52:47.318Z,101334.66
2023-05-24T07:55:16.588Z,101334.38
2023-05-24T07:57:44.480Z,101335.97
2023-05-24T08:00:16.622Z,101334.56
2023-05-24T08:02:49.009Z,101335.34
2023-05-24T08:05:17.682Z,101338.69
2023-05-24T08:07:45.601Z,101343.72
2023-05-24T08:10:14.068Z,101341.75
2023-05-24T08:12:43.596Z,101345.66
2023-05-24T08:15:11.860Z,101341.13
2023-05-24T08:17:39.839Z,101349.13
2023-05-24T08:20:16.944Z,101342.19
2023-05-24T08:22:45.370Z,101344.25
2023-05-24T08:25:13.174Z,101340.78
2023-05-24T08:27:41.271Z,101346.34
2023-05-24T08:30:12.546Z,101344.28
2023-05-24T08:32:40.598Z,101340.56
2023-05-24T08:35:19.482Z,101344.84
2023-05-24T08:37:49.029Z,101331.72
2023-05-24T08:40:18.208Z,101339.78
2023-05-24T08:42:46.785Z,101342.88
2023-05-24T08:45:18.056Z,101346.38
2023-05-24T08:47:48.577Z,101336.25
2023-05-24T08:50:17.841Z,101331.69
2023-05-24T08:52:46.667Z,101328.81
2023-05-24T08:55:16.148Z,101321.09
2023-05-24T08:57:45.966Z,101326.72
2023-05-24T09:00:17.020Z,101326.31
2023-05-24T09:02:46.731Z,101325.09
2023-05-24T09:05:17.411Z,101332.38
2023-05-24T09:07:46.593Z,101333.84
2023-05-24T09:10:15.639Z,101326.50
2023-05-24T09:12:48.858Z,101331.66
2023-05-24T09:15:19.185Z,101337.19
2023-05-24T09:17:47.564Z,101334.19
2023-05-24T09:20:15.714Z,101342.94
2023-05-24T09:22:45.039Z,101348.09
2023-05-24T09:25:14.887Z,101353.44
2023-05-24T09:27:50.721Z,101354.09
2023-05-24T09:30:21.590Z,101352.06
2023-05-24T09:32:58.582Z,101354.34
2023-05-24T09:35:27.196Z,101358.28
2023-05-24T09:37:57.362Z,101353.13
2023-05-24T09:40:26.335Z,101350.44
2023-05-24T09:43:05.158Z,101344.63
2023-05-24T09:45:40.984Z,101336.78
2023-05-24T09:48:12.620Z,101341.31
2023-05-24T09:50:41.550Z,101343.81
2023-05-24T09:53:09.815Z,101331.31
2023-05-24T09:55:38.204Z,101342.00
2023-05-24T09:58:08.448Z,101332.63
2023-05-24T10:00:41.605Z,101339.59
2023-05-24T10:03:12.808Z,101331.41
2023-05-24T10:05:44.732Z,101330.47
2023-05-24T10:08:14.425Z,101332.53
2023-05-24T10:10:43.667Z,101333.56
2023-05-24T10:13:15.780Z,101337.09
2023-05-24T10:15:45.497Z,101344.97
2023-05-24T10:18:14.386Z,101338.81
2023-05-24T10:20:43.209Z,101348.31
2023-05-24T10:23:19.217Z,101355.78
2023-05-24T10:25:53.816Z,101352.66
2023-05-24T10:28:24.857Z,101358.28
2023-05-24T10:31:07.495Z,101358.50
2023-05-24T10:33:38.172Z,101353.53
2023-05-24T10:36:10.621Z,101361.44
2023-05-24T10:38:41.731Z,101350.72
2023-05-24T10:41:09.789Z,101358.16
2023-05-24T10:43:38.809Z,101358.50
2023-05-24T10:46:10.884Z,101354.94
2023-05-24T10:48:41.461Z,101360.25
2023-05-24T10:51:33.642Z,101360.13
2023-05-24T10:54:13.715Z,101368.63
2023-05-24T10:56:44.609Z,101356.28
2023-05-24T10:59:32.008Z,101350.47
2023-05-24T11:02:01.957Z,101346.25
2023-05-24T11:04:37.815Z,101349.00
2023-05-24T11:07:11.581Z,101349.84
2023-05-24T11:09:47.241Z,101338.97
2023-05-24T11:12:17.731Z,101344.69
2023-05-24T11:14:52.345Z,101348.41
2023-05-24T11:17:23.848Z,101345.16
2023-05-24T11:19:54.523Z,101340.22
2023-05-24T11:22:26.763Z,101342.06
2023-05-24T11:24:54.883Z,101347.66
2023-05-24T11:27:24.332Z,101345.09
2023-05-24T11:29:52.885Z,101338.25
2023-05-24T11:32:24.009Z,101340.88
2023-05-24T11:34:52.464Z,101347.84
2023-05-24T11:37:28.632Z,101344.56
2023-05-24T11:40:05.132Z,101341.03
2023-05-24T11:42:34.047Z,101344.88
2023-05-24T11:45:02.038Z,101341.44
2023-05-24T11:47:35.109Z,101336.09
2023-05-24T11:50:03.423Z,101339.44
2023-05-24T11:52:31.388Z,101339.31
2023-05-24T11:54:59.333Z,101336.66
2023-05-24T11:57:38.285Z,101345.41
2023-05-24T12:00:11.448Z,101345.94
2023-05-24T12:02:42.300Z,101341.63
2023-05-24T12:05:12.527Z,101343.66
2023-05-24T12:07:40.867Z,101340.66
2023-05-24T12:10:10.534Z,101337.09
2023-05-24T12:15:14.725Z,101342.44
2023-05-24T12:17:50.005Z,101344.28
2023-05-24T12:20:21.659Z,101342.22
2023-05-24T12:22:51.730Z,101338.84
2023-05-24T12:25:22.549Z,101342.59
2023-05-24T12:27:55.797Z,101344.66
2023-05-24T12:30:24.067Z,101350.69
2023-05-24T12:32:54.672Z,101346.78
2023-05-24T12:35:23.946Z,101342.84
2023-05-24T12:38:02.704Z,101342.50
2023-05-24T12:40:33.547Z,101347.47
2023-05-24T12:43:04.764Z,101340.31
2023-05-24T12:45:33.054Z,101345.97
2023-05-24T12:48:02.822Z,101340.75
2023-05-24T12:50:31.462Z,101349.50
2023-05-24T12:52:59.256Z,101328.31
2023-05-24T12:55:28.603Z,101326.06
2023-05-24T12:57:58.597Z,101335.50
2023-05-24T13:00:28.803Z,101331.44
2023-05-24T13:02:58.899Z,101328.69
2023-05-24T13:05:30.087Z,101334.03
2023-05-24T13:07:58.170Z,101326.97
2023-05-24T13:10:27.622Z,101332.88
2023-05-24T13:12:56.202Z,101332.13
2023-05-24T13:15:24.098Z,101340.00
2023-05-24T13:17:52.098Z,101337.50
2023-05-24T13:20:22.184Z,101336.91
2023-05-24T13:22:51.567Z,101334.75
2023-05-24T13:25:22.453Z,101344.53
2023-05-24T13:27:50.452Z,101327.91
2023-05-24T13:30:18.768Z,101333.22
2023-05-24T13:32:46.720Z,101327.25
2023-05-24T13:35:14.710Z,101330.09
2023-05-24T13:37:42.663Z,101331.84
2023-05-24T13:40:12.619Z,101333.66
2023-05-24T13:42:41.136Z,101335.38
2023-05-24T13:45:11.659Z,101317.09
2023-05-24T13:47:41.062Z,101316.25
2023-05-24T13:50:11.160Z,101316.25
2023-05-24T13:52:39.620Z,101317.13
2023-05-24T13:55:08.969Z,101317.06
2023-05-24T14:00:11.072Z,101320.44
2023-05-24T14:02:39.567Z,101320.47
2023-05-24T14:05:25.748Z,101315.91
2023-05-24T14:07:57.461Z,101314.22
2023-05-24T14:10:25.488Z,101309.13
2023-05-24T14:13:11.271Z,101313.59
2023-05-24T14:15:42.193Z,101314.53
2023-05-24T14:18:10.887Z,101308.09
2023-05-24T14:20:40.415Z,101308.84
2023-05-24T14:23:08.881Z,101313.34
2023-05-24T14:25:36.948Z,101315.03
2023-05-24T14:28:08.514Z,101313.28
2023-05-24T14:30:37.880Z,101308.84
2023-05-24T14:33:08.008Z,101305.34
2023-05-24T14:35:39.611Z,101299.88
2023-05-24T14:38:10.836Z,101299.88
2023-05-24T14:40:40.133Z,101307.94
2023-05-24T14:43:10.662Z,101308.84
2023-05-24T14:45:41.613Z,101303.03
2023-05-24T14:48:11.727Z,101305.22
2023-05-24T14:50:41.256Z,101307.00
2023-05-24T14:53:11.863Z,101305.38
2023-05-24T14:55:42.466Z,101312.63
2023-05-24T14:58:12.568Z,101309.09
2023-05-24T15:00:43.193Z,101310.94
2023-05-24T15:03:12.797Z,101322.34
2023-05-24T15:05:42.664Z,101322.31
2023-05-24T15:08:13.783Z,101326.72
2023-05-24T15:10:44.488Z,101316.22
2023-05-24T15:13:14.453Z,101320.63
2023-05-24T15:15:42.293Z,101316.28
2023-05-24T15:18:10.491Z,101319.75
2023-05-24T15:20:38.404Z,101314.44
2023-05-24T15:23:06.462Z,101308.28
2023-05-24T15:25:34.235Z,101314.44
2023-05-24T15:28:02.279Z,101299.59
2023-05-24T15:30:31.594Z,101307.47
2023-05-24T15:32:59.486Z,101302.19
2023-05-24T15:35:27.269Z,101303.09
2023-05-24T15:37:55.071Z,101300.53
2023-05-24T15:40:24.437Z,101298.66
2023-05-24T15:42:53.005Z,101302.75
2023-05-24T15:45:21.352Z,101294.56
2023-05-24T15:47:50.820Z,101304.41
2023-05-24T15:50:25.835Z,101295.13
2023-05-24T15:52:59.867Z,101300.75
2023-05-24T15:55:28.054Z,101303.38
2023-05-24T15:57:57.699Z,101305.25
2023-05-24T16:00:25.835Z,101310.78
2023-05-24T16:02:56.982Z,101310.94
2023-05-24T16:05:25.749Z,101313.66
2023-05-24T16:07:53.687Z,101311.91
2023-05-24T16:10:21.653Z,101315.41
2023-05-24T16:12:49.601Z,101315.34
2023-05-24T16:15:17.775Z,101321.50
2023-05-24T16:17:45.762Z,101313.59
2023-05-24T16:20:15.222Z,101316.22
2023-05-24T16:22:49.246Z,101317.97
2023-05-24T16:25:17.190Z,101318.00
2023-05-24T16:27:45.011Z,101313.59
2023-05-24T16:30:14.835Z,101316.16
2023-05-24T16:32:45.072Z,101316.09
2023-05-24T16:35:13.187Z,101322.25
2023-05-24T16:37:42.353Z,101316.91
2023-05-24T16:40:11.764Z,101317.63
2023-05-24T16:42:39.707Z,101313.22
2023-05-24T16:45:08.796Z,101316.69
2023-05-24T16:47:37.239Z,101311.50
2023-05-24T16:50:06.891Z,101302.72
2023-05-24T16:52:35.124Z,101307.03
2023-05-24T16:55:05.922Z,101304.41
2023-05-24T16:57:35.373Z,101294.66
2023-05-24T17:00:03.997Z,101295.53
2023-05-24T17:02:32.170Z,101286.75
2023-05-24T17:05:00.236Z,101298.28
2023-05-24T17:07:28.118Z,101294.84
2023-05-24T17:09:55.884Z,101299.28
2023-05-24T17:12:25.128Z,101301.91
2023-05-24T17:14:52.953Z,101298.44
2023-05-24T17:17:20.980Z,101300.16
2023-05-24T17:19:48.930Z,101301.06
2023-05-24T17:22:16.776Z,101302.78
2023-05-24T17:24:44.636Z,101302.75
2023-05-24T17:27:13.086Z,101308.88
2023-05-24T17:29:44.426Z,101306.19
2023-05-24T17:32:12.305Z,101298.22
2023-05-24T17:34:40.231Z,101298.31
2023-05-24T17:37:08.196Z,101300.84
2023-05-24T17:39:36.005Z,101301.78
2023-05-24T17:42:04.717Z,101299.97
2023-05-24T17:44:32.725Z,101300.06
2023-05-24T17:47:02.062Z,101308.81
2023-05-24T17:49:30.066Z,101307.97
2023-05-24T17:52:00.530Z,101310.53
2023-05-24T17:54:29.019Z,101315.81
2023-05-24T17:56:57.017Z,101304.16
2023-05-24T17:59:24.907Z,101313.91
2023-05-24T18:01:52.797Z,101313.88
2023-05-24T18:04:21.982Z,101313.91
2023-05-24T18:06:49.953Z,101306.84
2023-05-24T18:09:18.016Z,101318.81
2023-05-24T18:11:45.865Z,101311.84
2023-05-24T18:14:13.735Z,101313.75
2023-05-24T18:16:42.889Z,101315.47
2023-05-24T18:19:10.848Z,101311.88
2023-05-24T18:21:40.954Z,101314.59
2023-05-24T18:24:08.904Z,101309.44
2023-05-24T18:26:36.919Z,101325.19
2023-05-24T18:29:04.727Z,101323.31
2023-05-24T18:31:32.519Z,101323.22
2023-05-24T18:34:01.825Z,101325.72
2023-05-24T18:36:30.253Z,101328.38
2023-05-24T18:38:59.532Z,101334.38
2023-05-24T18:41:27.326Z,101334.22
2023-05-24T18:43:55.158Z,101327.28
2023-05-24T18:46:23.098Z,101329.06
2023-05-24T18:48:52.679Z,101332.34
2023-05-24T18:51:20.718Z,101334.97
2023-05-24T18:53:50.460Z,101335.88
2023-05-24T18:56:19.800Z,101335.06
2023-05-24T18:58:49.801Z,101342.81
2023-05-24T19:01:17.968Z,101351.47
2023-05-24T19:03:45.961Z,101354.81
2023-05-24T19:06:14.557Z,101360.00
2023-05-24T19:08:42.836Z,101360.06
2023-05-24T19:11:11.397Z,101356.50
2023-05-24T19:13:41.547Z,101358.84
2023-05-24T19:16:09.995Z,101359.78
2023-05-24T19:18:38.012Z,101367.84
2023-05-24T19:21:06.222Z,101373.94
2023-05-24T19:23:34.135Z,101370.34
2023-05-24T19:26:02.032Z,101375.31
2023-05-24T19:28:30.499Z,101372.63
2023-05-24T19:31:02.402Z,101373.47
2023-05-24T19:33:30.356Z,101380.25
2023-05-24T19:35:58.197Z,101372.34
2023-05-24T19:38:26.376Z,101378.34
2023-05-24T19:40:54.221Z,101372.19
2023-05-24T19:43:22.005Z,101380.53
2023-05-24T19:45:51.757Z,101383.06
2023-05-24T19:48:21.684Z,101393.09
2023-05-24T19:50:50.468Z,101385.94
2023-05-24T19:53:18.352Z,101390.25
2023-05-24T19:55:46.318Z,101389.06
2023-05-24T19:58:14.367Z,101393.47
2023-05-24T20:00:42.750Z,101392.59
2023-05-24T20:03:10.836Z,101414.13
2023-05-24T20:05:40.581Z,101409.44
2023-05-24T20:08:08.517Z,101407.53
2023-05-24T20:10:38.747Z,101421.44
2023-05-24T20:13:06.709Z,101421.16
2023-05-24T20:15:34.622Z,101419.19
2023-05-24T20:18:02.561Z,101425.16
2023-05-24T20:20:30.509Z,101422.53
2023-05-24T20:23:00.032Z,101434.66
2023-05-24T20:25:27.924Z,101430.91
2023-05-24T20:27:55.911Z,101436.13
2023-05-24T20:30:23.777Z,101433.34
2023-05-24T20:32:51.749Z,101435.63
2023-05-24T20:35:19.620Z,101437.38
2023-05-24T20:37:47.509Z,101439.09
2023-05-24T20:40:23.946Z,101445.75
2023-05-24T20:42:52.193Z,101452.53
2023-05-24T20:45:20.042Z,101447.22
2023-05-24T20:47:47.944Z,101455.75
2023-05-24T20:50:16.099Z,101450.47
2023-05-24T20:52:44.007Z,101454.69
2023-05-24T20:55:12.089Z,101459.75
2023-05-24T20:57:41.528Z,101455.25
2023-05-24T21:00:10.766Z,101465.59
2023-05-24T21:02:40.318Z,101460.47
2023-05-24T21:05:09.685Z,101456.94
2023-05-24T21:07:37.511Z,101465.44
2023-05-24T21:10:07.719Z,101472.34
2023-05-24T21:12:35.815Z,101473.84
2023-05-24T21:15:06.730Z,101467.31
2023-05-24T21:17:34.706Z,101476.59
2023-05-24T21:20:04.042Z,101471.22
2023-05-24T21:22:32.261Z,101481.44
2023-05-24T21:25:00.203Z,101478.53
2023-05-24T21:27:28.180Z,101483.72
2023-05-24T21:29:56.117Z,101502.47
2023-05-24T21:32:25.415Z,101487.81
2023-05-24T21:34:53.330Z,101491.25
2023-05-24T21:37:21.156Z,101489.47
2023-05-24T21:39:50.095Z,101496.34
2023-05-24T21:42:18.016Z,101497.94
2023-05-24T21:44:45.825Z,101499.53
2023-05-24T21:47:13.865Z,101495.81
2023-05-24T21:49:43.126Z,101500.25
2023-05-24T21:52:11.078Z,101491.38
2023-05-24T21:54:38.973Z,101496.50
2023-05-24T21:57:07.181Z,101499.00
2023-05-24T21:59:35.160Z,101500.34
2023-05-24T22:02:03.373Z,101501.06
2023-05-24T22:04:31.315Z,101509.44
2023-05-24T22:07:00.775Z,101513.69
2023-05-24T22:09:28.581Z,101511.84
2023-05-24T22:11:56.483Z,101513.41
2023-05-24T22:14:24.290Z,101513.16
2023-05-24T22:16:52.260Z,101514.84
2023-05-24T22:19:38.511Z,101519.00
2023-05-24T22:22:09.903Z,101526.63
2023-05-24T22:24:37.821Z,101517.53
2023-05-24T22:27:09.525Z,101532.38
2023-05-24T22:29:37.410Z,101527.94
2023-05-24T22:32:05.967Z,101527.78
2023-05-24T22:34:33.860Z,101530.41
2023-05-24T22:37:01.627Z,101538.81
2023-05-24T22:39:31.052Z,101539.53
2023-05-24T22:41:59.007Z,101537.69
2023-05-24T22:44:26.950Z,101534.78
2023-05-24T22:46:54.825Z,101544.31
2023-05-24T22:49:22.900Z,101536.31
2023-05-24T22:51:51.110Z,101543.19
2023-05-24T22:54:19.984Z,101546.59
2023-05-24T22:56:49.252Z,101538.66
2023-05-24T22:59:17.288Z,101544.09
2023-05-24T23:01:45.260Z,101544.09
2023-05-24T23:06:47.377Z,101537.75
2023-05-24T23:09:15.233Z,101541.13
2023-05-24T23:11:43.186Z,101552.59
2023-05-24T23:14:12.268Z,101551.59
2023-05-24T23:16:45.712Z,101553.16
2023-05-24T23:19:18.091Z,101558.25
2023-05-24T23:21:46.313Z,101552.94
2023-05-24T23:24:15.678Z,101549.94
2023-05-24T23:26:43.817Z,101547.03
2023-05-24T23:29:13.419Z,101539.44
2023-05-24T23:31:41.655Z,101546.06
2023-05-24T23:34:09.592Z,101542.50
2023-05-24T23:36:37.450Z,101543.91
2023-05-24T23:39:06.125Z,101540.91
2023-05-24T23:41:33.993Z,101546.00
2023-05-24T23:44:01.814Z,101546.63
2023-05-24T23:46:31.191Z,101548.53
2023-05-24T23:48:59.945Z,101549.00
2023-05-24T23:51:32.807Z,101549.94
2023-05-24T23:54:01.487Z,101546.28
2023-05-24T23:56:29.520Z,101555.72
2023-05-24T23:58:57.550Z,101552.13
